Terminal Aerodrome Forecast
Issued by NWS Chicago, IL

Home | Current Version | Previous Version | Graphics & Text | Print | Product List | Glossary On
Versions: 1 2 3 4 5 6 7 8 9 10 11 12 13 14 15 16 17 18 19 20 21
579
FTUS43 KLOT 201722
TAFRFD
TAF
KRFD 201722Z 2018/2118 18014G21KT P6SM SCT250
     FM210100 20004KT P6SM -SHRA BKN050 OVC200
      TEMPO 2102/2105 4SM -TSRA BKN050CB
     FM210800 17003KT P6SM VCSH BKN050
     FM211100 16003KT 5SM BR FEW050 SCT250
     FM211400 16006KT P6SM BKN250=

USA.gov is the U.S. government's official web portal to all federal, state and local government web resources and services.